Weather observations for the past three days for
Middleton Island Airport
Metric (Imperial)
Date Time (akdt) Wind (kph) Vis. (km) Weather Sky Cond. Temperature (ºC) Relative Humidity Wind Chill (°C) Heat Index (°C) Pressure Precipitation (cm)
Air Dwpt 6 hour altimeter (cm) sea level (mb) 1 hr 3 hr 6 hr
Max. Min.
04 13:56 E 39 G 50 14.48 Overcast and Breezy BKN060 OVC075 5.6 5 96% 1 75.92 1012.2 0.03
04 12:56 E 43 G 54 4.83 Light Rain Fog/Mist and Windy FEW016 SCT038 OVC055 5.6 5 96% 0 76.02 1013.7 0.13 0.25
04 11:56 E 37 6.44 Rain Fog/Mist and Breezy OVC016 5.6 5.6 100% 1 76.12 1014.9 0.08
04 10:56 E 35 4.02 Light Rain Fog/Mist and Breezy OVC003 5.6 5.6 100% 1 76.15 1015.4 0.05
04 09:56 E 33 4.83 Fog/Mist and Breezy OVC003 5.6 5.6 6.1 5 100% 1 76.23 1016.3
04 08:56 E 26 6.44 Fog/Mist OVC003 5.6 5.6 100% 2 76.28 1016.8
04 07:56 E 28 4.83 Fog/Mist OVC003 5.6 5.6 100% 1 76.33 1017.6
04 06:56 E 26 4.02 Fog/Mist OVC003 5.6 5.6 100% 2 76.35 1018.0
04 05:56 E 28 3.22 Fog/Mist OVC003 5 5 100% 1 76.38 1018.4
04 04:56 E 24 2.01 Fog/Mist OVC003 5 5 100% 1 76.4 1018.7
04 03:56 E 22 0.80 Fog OVC003 5 5 5 5 100% 1 76.45 1019.1 0.18
04 02:56 SE 22 1.61 Fog/Mist OVC003 5 5 100% 1 76.48 1019.7 0.03
04 01:56 SE 24 6.44 Light Rain Fog/Mist OVC003 5 5 100% 1 76.5 1019.9 0.03
04 00:56 SE 24 6.44 Fog/Mist OVC003 5 5 100% 1 76.5 1020.0 0.03 0.13
03 23:56 SE 26 3.22 Light Rain OVC003 5 0 0% 1 76.53 1020.1 0.03
03 22:56 SE 24 9.66 Light Rain OVC003 5 0 0% 1 76.5 1020.0 0.08
03 21:56 SE 26 4.02 Light Rain Fog/Mist OVC003 5 5 6.1 5 100% 1 76.48 1019.7 0.03 0.53
03 20:56 SE 28 6.44 Light Rain Fog/Mist OVC003 5 5 100% 1 76.48 1019.5 0.1
03 19:56 SE 26 4.83 Light Rain Fog/Mist OVC003 5.6 5.6 100% 2 76.48 1019.6 0.05
03 18:56 SE 24 4.83 Light Rain Fog/Mist OVC003 5.6 5.6 100% 2 76.48 1019.6 0.1 0.36
03 17:56 SE 26 4.83 Light Rain Fog/Mist OVC003 5.6 5.6 100% 2 76.48 1019.5 0.15
03 16:56 SE 28 8.05 Light Rain Fog/Mist OVC003 5.6 5.6 100% 1 76.48 1019.6 0.1
03 15:56 SE 24 1.21 Light Rain Fog/Mist OVC003 5.6 5.6 6.1 5.6 100% 2 76.5 1019.9 0.05 0.2
03 14:56 SE 20 0.80 Light Rain Fog OVC003 6.1 6.1 100% 3 76.53 1020.2 0.03
03 13:56 SE 20 0.80 Light Rain Fog OVC003 6.1 6.1 100% 3 76.53 1020.2 0.08
03 12:56 SE 20 1.21 Light Rain Fog/Mist OVC003 6.1 6.1 100% 3 76.5 1019.8 0.03 0.05
03 11:56 SE 20 2.41 Light Rain Fog/Mist OVC003 6.1 6.1 100% 3 76.48 1019.5 0.03
03 10:56 SE 20 2.82 Light Rain Fog/Mist OVC003 5.6 5.6 100% 2 76.45 1019.2
03 09:56 SE 19 2.41 Light Rain Fog/Mist OVC003 5.6 5.6 5.6 3.9 100% 2 76.43 1019.0 0.05 0.36
03 08:56 SE 22 1.61 Light Rain Fog/Mist OVC003 5.6 5.6 100% 2 76.4 1018.8 0.05
03 07:56 E 26 8.05 Light Rain Fog/Mist OVC003 5 5 100% 1 76.43 1018.8 0.05
03 06:56 E 39 9.66 Light Rain Fog/Mist and Breezy OVC005 4.4 4.4 100% -1 76.43 1019.0 0.08 0.2
03 05:56 E 43 G 52 16.09 Light Rain and Windy OVC009 3.9 3.3 96% -2 76.48 1019.7 0.08
03 04:56 E 43 9.66 Light Rain Fog/Mist and Windy OVC009 3.9 3.3 96% -2 76.53 1020.2 0.05
03 03:56 E 44 G 50 14.48 Light Rain and Windy OVC009 3.9 2.8 4.4 3.3 93% -2 76.58 1021.1 0.08 0.38
03 02:56 E 35 G 48 12.87 Light Rain and Breezy BKN009 OVC013 3.3 2.8 97% -2 76.66 1022.0 0.08
03 01:56 E 39 11.27 Light Rain and Breezy BKN009 OVC014 3.3 2.8 97% -2 76.68 1022.3 0.08
03 00:56 E 30 14.48 Light Rain OVC009 3.9 2.8 93% -1 76.73 1022.9 0.08 0.15
02 23:56 E 24 14.48 Light Rain BKN010 OVC015 3.9 3.3 96% -0 76.76 1023.2 0.08
02 22:56 SE 28 16.09 Light Rain BKN008 OVC034 4.4 3.3 93% -0 76.76 1023.3
02 21:56 SE 26 16.09 Light Rain BKN006 OVC012 4.4 3.9 6.1 4.4 97% 0 76.76 1023.3
02 20:56 SE 28 16.09 Overcast BKN009 OVC013 4.4 3.9 97% -0 76.76 1023.3
02 19:56 E 24 11.27 Overcast BKN008 OVC017 5 3.9 93% 1 76.73 1023.0
02 18:56 SE 19 16.09 Overcast BKN008 OVC015 5 3.9 93% 2 76.76 1023.2
02 17:56 SE 15 16.09 Overcast BKN009 OVC013 5.6 3.9 89% 3 76.78 1023.6
02 16:56 S 20 16.09 Overcast BKN009 OVC028 5.6 3.9 89% 2 76.73 1023.1
02 15:56 S 20 16.09 Overcast OVC009 6.1 4.4 6.7 6.1 89% 3 76.73 1023.1
02 14:56 S 20 14.48 Overcast OVC009 6.1 4.4 89% 3 76.73 1023.1
02 13:56 S 22 14.48 Overcast FEW009 OVC027 6.7 5 89% 3 76.71 1022.7
02 12:56 S 24 G 30 12.87 Overcast FEW009 OVC029 6.7 5 89% 3 76.68 1022.2
02 11:56 S 24 9.66 Fog/Mist FEW009 OVC029 6.7 5 89% 3 76.63 1021.6
02 10:56 S 26 11.27 Overcast BKN025 OVC029 6.7 5 89% 3 76.53 1020.4
02 09:56 S 24 14.48 Overcast OVC027 6.1 4.4 6.1 5.6 89% 2 76.45 0.0
02 08:56 S 20 14.48 Overcast OVC029 6.1 3.9 86% 3 76.38 0.0
02 07:56 S 20 14.48 Overcast OVC029 5.6 3.3 85% 2 76.3 0.0
02 06:56 SW 17 16.09 Overcast SCT028 OVC033 5.6 2.8 82% 3 76.25 1016.7
02 05:56 SW 17 12.87 Overcast BKN025 OVC030 5.6 3.3 85% 3 76.23 1016.2
02 04:56 SW 22 G 35 16.09 Overcast OVC025 5.6 2.8 82% 2 76.12 1014.9
02 03:56 SW 19 11.27 Overcast OVC018 5.6 3.9 5.6 5 89% 2 76.05 1014.0 0.03
02 02:56 SW 19 12.87 Overcast OVC020 5.6 3.9 89% 2 76 1013.2
02 01:56 SW 17 G 30 12.87 Overcast OVC016 5.6 4.4 92% 3 75.9 1011.8
02 00:56 SW 22 G 37 16.09 Overcast OVC016 5.6 4.4 92% 2 75.79 1010.3 0.03
01 23:56 SW 19 14.48 Mostly Cloudy SCT014 BKN031 BKN039 5 5 100% 2 75.67 1008.7
01 22:56 SW 19 2.41 Light Rain Fog/Mist OVC003 5.6 5.6 100% 2 75.57 1007.3 0.03
01 21:56 S 19 4.83 Light Rain OVC003 0 0 0% 75.44 0.0 0.13 2.01
01 20:56 SE 28 2.01 Light Rain OVC003 0 0 0% 75.36 0.0 0.23
01 19:56 SE 41 G 52 3.22 Light Rain and Breezy OVC003 0 0 0% 75.34 0.0 0.25
01 18:56 SE 44 G 57 2.82 Light Rain Fog/Mist and Windy OVC003 5 5 100% -1 75.36 1004.5 0.38 1.4
01 17:56 SE 54 G 69 2.82 Light Rain Fog/Mist and Windy OVC005 5.6 5.6 100% -0 75.36 1004.8 0.51
01 16:56 E 54 G 69 2.41 Rain Fog/Mist and Windy OVC005 5 5 100% -1 75.44 1005.7 0.51
01 15:56 E 59 G 76 2.82 Rain Fog/Mist and Windy OVC005 5 5 5 3.9 100% -1 75.51 1006.6 0.43 1.68
01 14:56 E 59 G 70 2.41 Rain Fog/Mist and Windy OVC005 5 5 100% -1 75.57 1007.3 0.28
Date Time (akdt) Wind (kph) Vis. (km) Weather Sky Cond. Air Dwpt Max. Min. Relative Humidity Wind Chill (°C) Heat Index (°C) altimeter (cm) sea level (mb) 1 hr 3 hr 6 hr
6 hour
Temperature (ºC) Pressure Precipitation (cm)